Velkommen til min vejrside, der er mangler og fejl som bliver opdateret. Kom snart tilbage og få vejret - Welcome to our website - Welkom op onze vernieuwde website
Bienvenue sur notre site web - Willkommen auf unserer Website - Check our progress frequently. Prüfen Sie unsere Fortschritte regelmäßig. Consultez notre progression fréquemment. Komt u straks nog eens terug


vejr3>nv more information Vejr3>NV


rain radar more information rain snow radar


visit our other weather sites:

Template dokumentation
og downloads

And another site


weather underground history page text

daily summary for february 23, 2018 units:  metric    english   both
« previous day
next day »
daily weekly monthly yearly custom
  current: high: low: average:
temperature: -18.2 °C -17.8 °C -20.9 °C -18.9 °C
dew point: -19.1 °C -17.8 °C -21.2 °C -19.8 °C
humidity: 88 % Humidity % 71 % 89 %
wind speed: 31.1 km/h 0 km/h 0 km/h 10.3 km/h
wind gust: 31.1 km/h 0 km/h - -
wind:NNW - - SW
pressure: 34808.1 hPa 0 hPa 34774.2 hPa -
precipitation: 0 mm      
Historical Graphs
 
 
tabular data for february 23, 2018
time temperature dew point pressure wind wind speed wind gust humidity rainfall rate (hourly)
-17.8 °C -17.8 °C 0 hPa Calm     Humidity % 0 mm
00:01 -20.1 °C -20.5 °C 34784.4 hPa ENE 9 km/h 9 km/h 95 % 0 mm
00:06 -20.2 °C -20.5 °C 34784.4 hPa ENE 9 km/h 9 km/h 95 % 0 mm
00:11 -20.2 °C -20.5 °C 34784.4 hPa ENE 6 km/h 6 km/h 95 % 0 mm
00:16 -20.2 °C -20.5 °C 34784.4 hPa ENE 6 km/h 6 km/h 95 % 0 mm
00:21 -20.2 °C -20.5 °C 34784.4 hPa ENE 6 km/h 6 km/h 95 % 0 mm
00:26 -20.2 °C -20.5 °C 34784.4 hPa ENE 6 km/h 6 km/h 95 % 0 mm
00:31 -20.2 °C -20.5 °C 34784.4 hPa ENE 6 km/h 6 km/h 95 % 0 mm
00:36 -20.2 °C -20.6 °C 34784.4 hPa East 9 km/h 9 km/h 95 % 0 mm
00:41 -20.2 °C -20.6 °C 34784.4 hPa East 9 km/h 9 km/h 95 % 0 mm
00:46 -20.2 °C -20.6 °C 34784.4 hPa East 9 km/h 9 km/h 95 % 0 mm
00:51 -20.2 °C -20.6 °C 34784.4 hPa East 9 km/h 9 km/h 95 % 0 mm
00:56 -20.3 °C -20.7 °C 34784.4 hPa East 9 km/h 9 km/h 95 % 0 mm
01:01 -20.3 °C -20.7 °C 34784.4 hPa East 5.1 km/h 7.7 km/h 95 % 0 mm
01:06 -20.3 °C -20.7 °C 34784.4 hPa East 9 km/h 9 km/h 95 % 0 mm
01:11 -20.3 °C -20.7 °C 34784.4 hPa East 9 km/h 9 km/h 95 % 0 mm
01:16 -20.3 °C -20.7 °C 34784.4 hPa East 9 km/h 9 km/h 95 % 0 mm
01:21 -20.4 °C -20.7 °C 34784.4 hPa East 9 km/h 9 km/h 95 % 0 mm
01:26 -20.4 °C -20.7 °C 34784.4 hPa ENE 9 km/h 9 km/h 95 % 0 mm
01:31 -20.4 °C -20.8 °C 34784.4 hPa East 10.3 km/h 10.3 km/h 95 % 0 mm
01:36 -20.4 °C -20.7 °C 34784.4 hPa East 10.3 km/h 10.3 km/h 96 % 0 mm
01:41 -20.4 °C -20.7 °C 34784.4 hPa East 9 km/h 9 km/h 96 % 0 mm
01:46 -20.4 °C -20.7 °C 34784.4 hPa East 10.3 km/h 10.3 km/h 96 % 0 mm
01:51 -20.4 °C -20.7 °C 34784.4 hPa East 9 km/h 9 km/h 96 % 0 mm
01:56 -20.3 °C -20.7 °C 34784.4 hPa East 9 km/h 9 km/h 96 % 0 mm
02:01 -20.3 °C -20.6 °C 34784.4 hPa East 10.3 km/h 10.3 km/h 96 % 0 mm
02:06 -20.3 °C -20.6 °C 34784.4 hPa East 9 km/h 9 km/h 96 % 0 mm
02:11 -20.3 °C -20.6 °C 34784.4 hPa East 9 km/h 9 km/h 96 % 0 mm
02:16 -20.2 °C -20.6 °C 34784.4 hPa East 9 km/h 9 km/h 96 % 0 mm
02:21 -20.3 °C -20.6 °C 34784.4 hPa East 9 km/h 9 km/h 96 % 0 mm
02:26 -20.3 °C -20.6 °C 34784.4 hPa East 9 km/h 9 km/h 96 % 0 mm
02:31 -20.3 °C -20.6 °C 34784.4 hPa East 9 km/h 9 km/h 96 % 0 mm
02:36 -20.3 °C -20.6 °C 34784.4 hPa East 9 km/h 9 km/h 96 % 0 mm
02:41 -20.3 °C -20.6 °C 34784.4 hPa East 9 km/h 9 km/h 96 % 0 mm
02:46 -20.3 °C -20.7 °C 34784.4 hPa East 9 km/h 9 km/h 96 % 0 mm
02:51 -20.4 °C -20.7 °C 34784.4 hPa East 7.7 km/h 7.7 km/h 96 % 0 mm
02:56 -20.4 °C -20.7 °C 34784.4 hPa East 9 km/h 9 km/h 96 % 0 mm
03:01 -20.4 °C -20.7 °C 34784.4 hPa East 6 km/h 6 km/h 96 % 0 mm
03:06 -20.4 °C -20.8 °C 34784.4 hPa East 6 km/h 6 km/h 96 % 0 mm
03:11 -20.5 °C -20.8 °C 34784.4 hPa East 6 km/h 6 km/h 96 % 0 mm
03:16 -20.5 °C -20.8 °C 34784.4 hPa East 9 km/h 9 km/h 96 % 0 mm
03:21 -20.6 °C -20.9 °C 34774.2 hPa East 10.3 km/h 10.3 km/h 96 % 0 mm
03:26 -20.6 °C -20.9 °C 34774.2 hPa East 9 km/h 9 km/h 96 % 0 mm
03:31 -20.6 °C -20.9 °C 34774.2 hPa East 9 km/h 9 km/h 96 % 0 mm
03:36 -20.6 °C -20.9 °C 34774.2 hPa East 9 km/h 9 km/h 96 % 0 mm
03:41 -20.6 °C -20.9 °C 34774.2 hPa East 10.3 km/h 10.3 km/h 96 % 0 mm
03:46 -20.6 °C -20.9 °C 34774.2 hPa ESE 10.3 km/h 10.3 km/h 96 % 0 mm
03:51 -20.6 °C -20.9 °C 34774.2 hPa ESE 9 km/h 9 km/h 96 % 0 mm
03:56 -20.6 °C -20.9 °C 34774.2 hPa East 9 km/h 9 km/h 96 % 0 mm
04:01 -20.6 °C -20.9 °C 34774.2 hPa East 9 km/h 9 km/h 96 % 0 mm
04:06 -20.7 °C -21 °C 34774.2 hPa East 10.3 km/h 10.3 km/h 96 % 0 mm
04:11 -20.7 °C -21 °C 34774.2 hPa East 10.3 km/h 10.3 km/h 96 % 0 mm
04:16 -20.7 °C -21 °C 34774.2 hPa East 9 km/h 9 km/h 96 % 0 mm
04:21 -20.7 °C -21 °C 34774.2 hPa East 3.1 km/h 3.1 km/h 96 % 0 mm
04:26 -20.7 °C -21.1 °C 34774.2 hPa Calm     96 % 0 mm
04:31 -20.8 °C -21.2 °C 34774.2 hPa Calm     95 % 0 mm
04:36 -20.8 °C -21.1 °C 34774.2 hPa Calm     96 % 0 mm
04:41 -20.8 °C -21.2 °C 34774.2 hPa Calm     96 % 0 mm
04:46 -20.8 °C -21.2 °C 34774.2 hPa Calm     96 % 0 mm
04:51 -20.8 °C -21.2 °C 34774.2 hPa Calm     96 % 0 mm
04:56 -20.8 °C -21.2 °C 34774.2 hPa Calm     96 % 0 mm
05:01 -20.8 °C -21.2 °C 34774.2 hPa Calm     96 % 0 mm
05:06 -20.8 °C -21.2 °C 34774.2 hPa Calm     96 % 0 mm
05:11 -20.9 °C -21.2 °C 34774.2 hPa Calm     96 % 0 mm
05:16 -20.9 °C -21.2 °C 34774.2 hPa Calm     96 % 0 mm
05:21 -20.9 °C -21.2 °C 34774.2 hPa Calm     96 % 0 mm
05:26 -20.9 °C -21.2 °C 34774.2 hPa Calm     96 % 0 mm
05:31 -20.9 °C -21.2 °C 34774.2 hPa Calm     96 % 0 mm
05:36 -20.9 °C -21.2 °C 34774.2 hPa East 3.1 km/h 3.1 km/h 96 % 0 mm
05:41 -20.9 °C -21.2 °C 34774.2 hPa East 6 km/h 6 km/h 96 % 0 mm
05:46 -20.9 °C -21.2 °C 34774.2 hPa East 6 km/h 6 km/h 96 % 0 mm
05:51 -20.9 °C -21.2 °C 34774.2 hPa East 6 km/h 6 km/h 96 % 0 mm
05:56 -20.9 °C -21.1 °C 34774.2 hPa East 3.1 km/h 3.1 km/h 97 % 0 mm
06:01 -20.8 °C -21.1 °C 34774.2 hPa Calm     97 % 0 mm
06:06 -20.8 °C -21.1 °C 34774.2 hPa Calm     97 % 0 mm
06:11 -20.8 °C -21.1 °C 34774.2 hPa Calm     97 % 0 mm
06:16 -20.8 °C -21 °C 34774.2 hPa Calm     97 % 0 mm
06:21 -20.7 °C -20.9 °C 34774.2 hPa Calm     97 % 0 mm
06:26 -20.8 °C -21 °C 34774.2 hPa Calm     97 % 0 mm
06:31 -20.8 °C -21 °C 34774.2 hPa Calm     97 % 0 mm
06:36 -20.8 °C -21.1 °C 34774.2 hPa Calm     96 % 0 mm
06:41 -20.8 °C -21.1 °C 34774.2 hPa Calm     96 % 0 mm
06:46 -20.8 °C -21 °C 34774.2 hPa Calm     97 % 0 mm
06:51 -20.8 °C -21 °C 34774.2 hPa Calm     97 % 0 mm
06:56 -20.7 °C -20.9 °C 34774.2 hPa Calm     97 % 0 mm
07:01 -20.7 °C -20.9 °C 34784.4 hPa Calm     97 % 0 mm
07:06 -20.7 °C -20.9 °C 34784.4 hPa Calm     97 % 0 mm
07:11 -20.7 °C -20.9 °C 34784.4 hPa Calm     97 % 0 mm
07:16 -20.7 °C -20.9 °C 34784.4 hPa Calm     97 % 0 mm
07:21 -20.7 °C -20.9 °C 34784.4 hPa Calm     97 % 0 mm
07:26 -20.7 °C -20.9 °C 34784.4 hPa Calm     97 % 0 mm
07:31 -20.7 °C -20.9 °C 34784.4 hPa Calm     97 % 0 mm
07:36 -20.7 °C -20.9 °C 34784.4 hPa Calm     97 % 0 mm
07:41 -20.7 °C -20.9 °C 34784.4 hPa Calm     97 % 0 mm
07:46 -20.7 °C -20.9 °C 34784.4 hPa Calm     97 % 0 mm
07:51 -20.7 °C -20.9 °C 34797.9 hPa Calm     97 % 0 mm
07:56 -20.7 °C -20.9 °C 34797.9 hPa Calm     97 % 0 mm
08:01 -20.6 °C -20.8 °C 34784.4 hPa Calm     97 % 0 mm
08:06 -20.6 °C -20.8 °C 34784.4 hPa Calm     97 % 0 mm
08:11 -20.4 °C -20.7 °C 34797.9 hPa Calm     97 % 0 mm
08:16 -20.4 °C -20.6 °C 34797.9 hPa Calm     97 % 0 mm
08:21 -20.4 °C -20.6 °C 34797.9 hPa Calm     97 % 0 mm
08:26 -20.2 °C -20.4 °C 34797.9 hPa Calm     97 % 0 mm
08:31 -20.2 °C -20.2 °C 34797.9 hPa Calm     100 % 0 mm
08:36 -20.1 °C -20.1 °C 34797.9 hPa Calm     100 % 0 mm
08:41 -19.9 °C -19.9 °C 34797.9 hPa SE 10.3 km/h 10.3 km/h 100 % 0 mm
08:46 -19.9 °C -19.9 °C 34797.9 hPa SE 10.3 km/h 10.3 km/h 100 % 0 mm
08:51 -19.8 °C -19.8 °C 34808.1 hPa SE 10.3 km/h 10.3 km/h 100 % 0 mm
08:56 -19.7 °C -19.7 °C 34808.1 hPa SE 10.3 km/h 10.3 km/h 100 % 0 mm
09:01 -19.6 °C -19.8 °C 34808.1 hPa ESE 9 km/h 9 km/h 97 % 0 mm
09:06 -19.6 °C -19.8 °C 34808.1 hPa ESE 9 km/h 9 km/h 97 % 0 mm
09:11 -19.5 °C -19.5 °C 34808.1 hPa SE 7.7 km/h 7.7 km/h 100 % 0 mm
09:16 -19.4 °C -19.4 °C 34808.1 hPa SSE 9 km/h 9 km/h 100 % 0 mm
09:21 -19.3 °C -19.3 °C 34808.1 hPa SSE 9 km/h 9 km/h 100 % 0 mm
09:26 -19.1 °C -19.1 °C 34808.1 hPa SSE 9 km/h 9 km/h 100 % 0 mm
09:31 -19.1 °C -19.3 °C 34808.1 hPa SSE 9 km/h 9 km/h 97 % 0 mm
09:36 -18.9 °C -19.1 °C 34808.1 hPa SSE 9 km/h 9 km/h 97 % 0 mm
09:41 -18.8 °C -19.1 °C 34808.1 hPa South 9 km/h 9 km/h 97 % 0 mm
09:46 -18.8 °C -19.1 °C 34808.1 hPa South 10.3 km/h 10.3 km/h 96 % 0 mm
09:51 -18.7 °C -19.1 °C 34808.1 hPa South 9 km/h 9 km/h 95 % 0 mm
09:56 -18.7 °C -19.1 °C 34808.1 hPa South 9 km/h 9 km/h 95 % 0 mm
10:01 -18.6 °C -19.1 °C 34808.1 hPa SW 9 km/h 9 km/h 94 % 0 mm
10:06 -18.6 °C -19 °C 34808.1 hPa SE 9 km/h 9 km/h 94 % 0 mm
10:11 -18.5 °C -18.9 °C 34808.1 hPa SSE 9 km/h 9 km/h 94 % 0 mm
10:16 -18.4 °C -18.8 °C 34808.1 hPa SSW 9 km/h 9 km/h 94 % 0 mm
10:21 -18.3 °C -18.7 °C 34818.2 hPa SW 9 km/h 9 km/h 94 % 0 mm
10:27 -18.2 °C -18.7 °C 34818.2 hPa South 9 km/h 9 km/h 93 % 0 mm
10:32 -18.1 °C -18.7 °C 34818.2 hPa SSE 9 km/h 9 km/h 92 % 0 mm
10:37 -18 °C -18.8 °C 34818.2 hPa SSE 9 km/h 9 km/h 90 % 0 mm
10:42 -17.9 °C -18.8 °C 34818.2 hPa WSW 9 km/h 9 km/h 89 % 0 mm
10:47 -17.8 °C -18.8 °C 34818.2 hPa SSW 9 km/h 9 km/h 88 % 0 mm
10:52 -17.7 °C -18.9 °C 34818.2 hPa SSE 9 km/h 9 km/h 85 % 0 mm
10:57 -17.7 °C -18.9 °C 34818.2 hPa West 7.7 km/h 7.7 km/h 85 % 0 mm
11:02 -17.6 °C -18.9 °C 34818.2 hPa NW 9 km/h 9 km/h 84 % 0 mm
11:07 -17.5 °C -18.8 °C 34818.2 hPa SW 9 km/h 9 km/h 84 % 0 mm
11:12 -17.4 °C -19 °C 34818.2 hPa West 10.3 km/h 10.3 km/h 82 % 0 mm
11:17 -17.4 °C -19.1 °C 34818.2 hPa SW 9 km/h 9 km/h 80 % 0 mm
11:22 -17.3 °C -19.1 °C 34818.2 hPa SW 11.9 km/h 11.9 km/h 79 % 0 mm
11:27 -17.3 °C -19.1 °C 34808.1 hPa SSW 9 km/h 9 km/h 79 % 0 mm
11:32 -17.2 °C -19 °C 34808.1 hPa West 10.3 km/h 10.3 km/h 79 % 0 mm
11:37 -17.1 °C -18.9 °C 34808.1 hPa WNW 10.3 km/h 10.3 km/h 79 % 0 mm
11:42 -17.1 °C -19 °C 34818.2 hPa NW 15 km/h 15 km/h 78 % 0 mm
11:47 -17.2 °C -19.2 °C 34808.1 hPa NNW 9 km/h 9 km/h 77 % 0 mm
11:52 -17.3 °C -19.1 °C 34808.1 hPa NNW 10.3 km/h 10.3 km/h 78 % 0 mm
11:57 -17.4 °C -19.3 °C 34808.1 hPa NNW 9 km/h 9 km/h 77 % 0 mm
12:02 -17.4 °C -19.2 °C 34808.1 hPa NW 9 km/h 9 km/h 79 % 0 mm
12:07 -17.4 °C -19.3 °C 34808.1 hPa WNW 9 km/h 9 km/h 78 % 0 mm
12:12 -17.3 °C -19.1 °C 34808.1 hPa WNW 9 km/h   79 % 0 mm
12:17 -17.3 °C -19.2 °C 34808.1 hPa NW 9 km/h 9 km/h 78 % 0 mm
12:22 -17.3 °C -19.2 °C 34808.1 hPa NNW 9 km/h 9 km/h 78 % 0 mm
12:27 -17.2 °C -19.1 °C 34808.1 hPa SW 9 km/h 9 km/h 78 % 0 mm
12:32 -17 °C -19.2 °C 34797.9 hPa WSW 11.9 km/h 11.9 km/h 75 % 0 mm
12:37 -16.8 °C -19.1 °C 34808.1 hPa WNW 17.9 km/h 17.9 km/h 75 % 0 mm
12:42 -16.7 °C -18.9 °C 34808.1 hPa SW 11.9 km/h 11.9 km/h 75 % 0 mm
12:47 -16.5 °C -18.8 °C 34808.1 hPa WSW 9 km/h 9 km/h 74 % 0 mm
12:52 -16.3 °C -18.7 °C 34808.1 hPa West 10.3 km/h 10.3 km/h 73 % 0 mm
12:57 -16.3 °C -18.9 °C 34808.1 hPa SSW 9 km/h 9 km/h 71 % 0 mm
13:02 -16.3 °C -18.8 °C 34808.1 hPa NW 12.9 km/h 12.9 km/h 72 % 0 mm
13:07 -16.4 °C -19.1 °C 34797.9 hPa NW 6 km/h 6 km/h 71 % 0 mm
13:12 -16.6 °C -19 °C 34797.9 hPa NNW 6 km/h 6 km/h 73 % 0 mm
13:17 -16.6 °C -19 °C 34797.9 hPa WNW 9 km/h 9 km/h 73 % 0 mm
13:22 -16.6 °C -19 °C 34797.9 hPa WNW 11.9 km/h 11.9 km/h 73 % 0 mm
13:27 -16.6 °C -18.8 °C 34797.9 hPa WNW 3.1 km/h 3.1 km/h 74 % 0 mm
13:32 -16.5 °C -18.8 °C 34797.9 hPa WNW 6 km/h 6 km/h 74 % 0 mm
13:37 -16.4 °C -18.7 °C 34797.9 hPa WNW 12.9 km/h 12.9 km/h 75 % 0 mm
13:42 -16.4 °C -18.7 °C 34797.9 hPa WNW 11.9 km/h 11.9 km/h 74 % 0 mm
13:47 -16.4 °C -18.8 °C 34797.9 hPa West 10.3 km/h 10.3 km/h 73 % 0 mm
13:52 -16.4 °C -18.8 °C 34797.9 hPa WNW 18.2 km/h 18.2 km/h 73 % 0 mm
13:57 -16.6 °C -19.1 °C 34797.9 hPa WNW 11.9 km/h 11.9 km/h 72 % 0 mm
14:02 -16.6 °C -18.9 °C 34797.9 hPa NNW 15 km/h 15 km/h 74 % 0 mm
14:07 -16.8 °C -19.1 °C 34797.9 hPa NW 18.2 km/h 18.2 km/h 74 % 0 mm
14:12 -16.9 °C -18.9 °C 34797.9 hPa WNW 15 km/h 15 km/h 77 % 0 mm
14:17 -16.8 °C -18.8 °C 34797.9 hPa NNW 15.6 km/h 15.6 km/h 78 % 0 mm
14:22 -16.9 °C -19.1 °C 34797.9 hPa NW 23.8 km/h 23.8 km/h 76 % 0 mm
14:27 -17 °C -18.9 °C 34797.9 hPa NNW 15.6 km/h 15.6 km/h 78 % 0 mm
14:32 -17 °C -18.9 °C 34784.4 hPa NW 12.9 km/h 12.9 km/h 78 % 0 mm
14:37 -17 °C -18.9 °C 34784.4 hPa WNW 15.6 km/h 15.6 km/h 78 % 0 mm
14:42 -17 °C -19 °C 34784.4 hPa NNW 26.9 km/h 26.9 km/h 77 % 0 mm
14:47 -17.1 °C -19 °C 34784.4 hPa NW 17.9 km/h 17.9 km/h 78 % 0 mm
14:52 -17.1 °C -19 °C 34784.4 hPa NW 11.9 km/h 11.9 km/h 78 % 0 mm
14:57 -17.1 °C -18.8 °C 34784.4 hPa NNW 9 km/h 9 km/h 79 % 0 mm
15:02 -16.9 °C -18.8 °C 34784.4 hPa NNW 12.9 km/h 12.9 km/h 78 % 0 mm
15:07 -16.8 °C -18.9 °C 34784.4 hPa NNW 9 km/h 9 km/h 76 % 0 mm
15:12 -16.9 °C -18.8 °C 34784.4 hPa NW 11.9 km/h 11.9 km/h 78 % 0 mm
15:17 -16.9 °C -18.8 °C 34784.4 hPa NNW 12.9 km/h 12.9 km/h 78 % 0 mm
15:22 -17 °C -19 °C 34784.4 hPa NW 10.3 km/h 10.3 km/h 77 % 0 mm
15:27 -17 °C -18.9 °C 34784.4 hPa NNW 9 km/h 9 km/h 78 % 0 mm
15:32 -17 °C -18.8 °C 34784.4 hPa NNW 18.2 km/h 18.2 km/h 79 % 0 mm
15:37 -17 °C -18.9 °C 34774.2 hPa West 17.9 km/h 17.9 km/h 78 % 0 mm
15:42 -17.1 °C -18.8 °C 34774.2 hPa WNW 15 km/h 15 km/h 79 % 0 mm
15:47 -17.1 °C -18.8 °C 34774.2 hPa NW 17.9 km/h 17.9 km/h 79 % 0 mm
15:52 -17.1 °C -18.8 °C 34784.4 hPa NW 17.9 km/h 17.9 km/h 79 % 0 mm
15:57 -17 °C -18.8 °C 34774.2 hPa WNW 23.3 km/h 23.3 km/h 79 % 0 mm
16:02 -17.1 °C -18.8 °C 34784.4 hPa NW 26.9 km/h 26.9 km/h 79 % 0 mm
16:07 -17.1 °C -18.9 °C 34784.4 hPa NNW 17.9 km/h 17.9 km/h 79 % 0 mm
16:12 -17.1 °C -18.8 °C 34784.4 hPa North 18.2 km/h 18.2 km/h 80 % 0 mm
16:17 -17.2 °C -18.8 °C 34784.4 hPa NNW 11.9 km/h 11.9 km/h 80 % 0 mm
16:22 -17.2 °C -18.8 °C 34784.4 hPa WNW 11.9 km/h 11.9 km/h 81 % 0 mm
16:27 -17.3 °C -18.9 °C 34784.4 hPa NW 11.9 km/h 11.9 km/h 81 % 0 mm
16:32 -17.4 °C -18.8 °C 34774.2 hPa NNW 11.9 km/h 11.9 km/h 83 % 0 mm
16:37 -17.4 °C -18.8 °C 34774.2 hPa NW 11.9 km/h 11.9 km/h 83 % 0 mm
16:42 -17.4 °C -18.8 °C 34774.2 hPa NW 9 km/h 9 km/h 84 % 0 mm
16:47 -17.4 °C -18.8 °C 34784.4 hPa NW 11.9 km/h 11.9 km/h 84 % 0 mm
16:52 -17.6 °C -18.8 °C 34784.4 hPa NW 15.6 km/h 15.6 km/h 84 % 0 mm
16:57 -17.6 °C -19 °C 34784.4 hPa NW 23.8 km/h 23.8 km/h 83 % 0 mm
17:02 -17.6 °C -18.9 °C 34784.4 hPa NW 23.8 km/h 23.8 km/h 84 % 0 mm
17:07 -17.6 °C -18.9 °C 34784.4 hPa NNW 15 km/h 15 km/h 84 % 0 mm
17:12 -17.7 °C -19 °C 34784.4 hPa NNW 17.9 km/h 17.9 km/h 84 % 0 mm
17:17 -17.7 °C -18.9 °C 34784.4 hPa NW 17.9 km/h 17.9 km/h 85 % 0 mm
17:22 -17.7 °C -18.9 °C 34797.9 hPa NW 17.9 km/h 17.9 km/h 85 % 0 mm
17:27 -17.7 °C -18.8 °C 34797.9 hPa NW 17.9 km/h 17.9 km/h 86 % 0 mm
17:32 -17.7 °C -18.8 °C 34797.9 hPa NW 17.9 km/h 17.9 km/h 86 % 0 mm
17:37 -17.7 °C -18.8 °C 34797.9 hPa NW 20.9 km/h 20.9 km/h 87 % 0 mm
17:42 -17.7 °C -18.8 °C 34797.9 hPa NNW 15 km/h 15 km/h 87 % 0 mm
17:47 -17.7 °C -18.7 °C 34797.9 hPa NNW 23.8 km/h 23.8 km/h 87 % 0 mm
17:52 -17.7 °C -18.7 °C 34797.9 hPa NW 25.9 km/h 25.9 km/h 88 % 0 mm
17:57 -17.7 °C -18.7 °C 34797.9 hPa North 29.8 km/h 29.8 km/h 88 % 0 mm
18:02 -17.7 °C -18.7 °C 34797.9 hPa NNW 25.9 km/h 25.9 km/h 89 % 0 mm
18:07 -17.7 °C -18.7 °C 34797.9 hPa NW 29.8 km/h 29.8 km/h 89 % 0 mm
18:12 -17.8 °C -18.7 °C 34797.9 hPa NW 17.9 km/h 17.9 km/h 89 % 0 mm
18:17 -17.9 °C -18.8 °C 34797.9 hPa WNW 29.8 km/h 29.8 km/h 89 % 0 mm
18:22 -17.9 °C -18.8 °C 34797.9 hPa NW 29.8 km/h 29.8 km/h 89 % 0 mm
18:27 -17.9 °C -18.8 °C 34797.9 hPa WNW 26.9 km/h 26.9 km/h 89 % 0 mm
18:32 -17.9 °C -18.8 °C 34797.9 hPa NW 26.9 km/h 26.9 km/h 89 % 0 mm
18:37 -17.9 °C -18.8 °C 34797.9 hPa WNW 23.8 km/h 23.8 km/h 89 % 0 mm
18:42 -18 °C -18.9 °C 34797.9 hPa North 26.9 km/h 26.9 km/h 88 % 0 mm
18:47 -17.9 °C -18.9 °C 34797.9 hPa NW 29.8 km/h 29.8 km/h 88 % 0 mm
18:52 -17.9 °C -18.9 °C 34797.9 hPa NNW 32.8 km/h 32.8 km/h 88 % 0 mm
18:57 -17.9 °C -19 °C 34808.1 hPa NW 32.8 km/h 32.8 km/h 87 % 0 mm
19:02 -18 °C -19.1 °C 34808.1 hPa NNW 32.8 km/h 32.8 km/h 87 % 0 mm
19:07 -18 °C -19 °C 34808.1 hPa NNW 38.8 km/h 38.8 km/h 88 % 0 mm
19:12 -18.1 °C -19 °C 34808.1 hPa NNW 38.8 km/h 38.8 km/h 88 % 0 mm
19:17 -18.1 °C -19.1 °C 34808.1 hPa NNW 29.8 km/h 29.8 km/h 88 % 0 mm
19:22 -18.2 °C -19.1 °C 34808.1 hPa NNW 31.1 km/h 31.1 km/h 88 % 0 mm
Vejr3
compliments of Weather Underground - 3.75 mb

script developed by  Jim McMurry - jmcmurry@mwt.net adapted for the template by  Wim van der Kuil - Leuven-Template.eu

you find our weather info also at:

European Weather Network

Weather Underground

AWEKAS

WeatherlinkIP

Citizen Weather Observer Program (CWOP)

equipment we use:

weather-station
Davis VP2+

weather-program
Weather Display

weather-server
Dell E6400

provider
Webhosting.dk

Davis VP2+

Weather Display

Dell E6400

Webhosting.dk